sensor_id;sensor_type;location;lat;lon;timestamp;temperature;humidity
75457;SHT31;64036;48.266;14.192;2024-01-07T00:00:35;4.79;81.16
75457;SHT31;64036;48.266;14.192;2024-01-07T00:03:01;4.78;81.06
75457;SHT31;64036;48.266;14.192;2024-01-07T00:05:27;4.75;81.08
75457;SHT31;64036;48.266;14.192;2024-01-07T00:07:53;4.76;81.20
75457;SHT31;64036;48.266;14.192;2024-01-07T00:10:19;4.77;81.10
75457;SHT31;64036;48.266;14.192;2024-01-07T00:12:44;4.78;81.09
75457;SHT31;64036;48.266;14.192;2024-01-07T00:15:10;4.79;81.04
75457;SHT31;64036;48.266;14.192;2024-01-07T00:17:36;4.79;80.99
75457;SHT31;64036;48.266;14.192;2024-01-07T00:20:01;4.72;80.86
75457;SHT31;64036;48.266;14.192;2024-01-07T00:22:27;4.65;81.01
75457;SHT31;64036;48.266;14.192;2024-01-07T00:24:52;4.59;81.03
75457;SHT31;64036;48.266;14.192;2024-01-07T00:27:18;4.51;81.15
75457;SHT31;64036;48.266;14.192;2024-01-07T00:29:44;4.49;81.28
75457;SHT31;64036;48.266;14.192;2024-01-07T00:32:09;4.46;81.38
75457;SHT31;64036;48.266;14.192;2024-01-07T00:34:35;4.45;81.40
75457;SHT31;64036;48.266;14.192;2024-01-07T00:37:01;4.42;81.42
75457;SHT31;64036;48.266;14.192;2024-01-07T00:39:26;4.38;81.54
75457;SHT31;64036;48.266;14.192;2024-01-07T00:41:52;4.34;81.62
75457;SHT31;64036;48.266;14.192;2024-01-07T00:44:18;4.30;81.73
75457;SHT31;64036;48.266;14.192;2024-01-07T00:46:43;4.31;81.81
75457;SHT31;64036;48.266;14.192;2024-01-07T00:49:09;4.31;81.81
75457;SHT31;64036;48.266;14.192;2024-01-07T00:51:34;4.28;81.86
75457;SHT31;64036;48.266;14.192;2024-01-07T00:54:00;4.25;81.90
75457;SHT31;64036;48.266;14.192;2024-01-07T00:56:26;4.24;81.98
75457;SHT31;64036;48.266;14.192;2024-01-07T00:58:53;4.23;82.00
75457;SHT31;64036;48.266;14.192;2024-01-07T01:01:18;4.22;82.09
75457;SHT31;64036;48.266;14.192;2024-01-07T01:03:44;4.17;82.11
75457;SHT31;64036;48.266;14.192;2024-01-07T01:06:10;4.14;82.14
75457;SHT31;64036;48.266;14.192;2024-01-07T01:08:35;4.10;82.21
75457;SHT31;64036;48.266;14.192;2024-01-07T01:11:01;4.10;82.28
75457;SHT31;64036;48.266;14.192;2024-01-07T01:13:27;4.08;82.30
75457;SHT31;64036;48.266;14.192;2024-01-07T01:15:56;4.09;82.34
75457;SHT31;64036;48.266;14.192;2024-01-07T01:18:21;4.10;82.36
75457;SHT31;64036;48.266;14.192;2024-01-07T01:20:47;4.08;82.34
75457;SHT31;64036;48.266;14.192;2024-01-07T01:23:12;4.08;82.40
75457;SHT31;64036;48.266;14.192;2024-01-07T01:25:38;4.08;82.40
75457;SHT31;64036;48.266;14.192;2024-01-07T01:28:05;4.09;82.41
75457;SHT31;64036;48.266;14.192;2024-01-07T01:30:31;4.10;82.42
75457;SHT31;64036;48.266;14.192;2024-01-07T01:32:57;4.10;82.39
75457;SHT31;64036;48.266;14.192;2024-01-07T01:35:22;4.10;82.39
75457;SHT31;64036;48.266;14.192;2024-01-07T01:37:48;4.13;82.44
75457;SHT31;64036;48.266;14.192;2024-01-07T01:40:16;4.17;82.44
75457;SHT31;64036;48.266;14.192;2024-01-07T01:42:45;4.21;82.40
75457;SHT31;64036;48.266;14.192;2024-01-07T01:45:13;4.26;82.29
75457;SHT31;64036;48.266;14.192;2024-01-07T01:47:40;4.27;82.16
75457;SHT31;64036;48.266;14.192;2024-01-07T01:50:06;4.22;82.03
75457;SHT31;64036;48.266;14.192;2024-01-07T01:52:33;4.19;82.01
75457;SHT31;64036;48.266;14.192;2024-01-07T01:55:00;4.16;82.04
75457;SHT31;64036;48.266;14.192;2024-01-07T01:57:28;4.13;82.11
75457;SHT31;64036;48.266;14.192;2024-01-07T02:00:02;4.12;82.12
75457;SHT31;64036;48.266;14.192;2024-01-07T02:02:30;4.12;82.20
75457;SHT31;64036;48.266;14.192;2024-01-07T02:04:57;4.13;82.16
75457;SHT31;64036;48.266;14.192;2024-01-07T02:07:24;4.12;82.11
75457;SHT31;64036;48.266;14.192;2024-01-07T02:09:50;4.12;82.10
75457;SHT31;64036;48.266;14.192;2024-01-07T02:12:16;4.12;82.10
75457;SHT31;64036;48.266;14.192;2024-01-07T02:14:41;4.11;82.10
75457;SHT31;64036;48.266;14.192;2024-01-07T02:17:07;4.11;82.13
75457;SHT31;64036;48.266;14.192;2024-01-07T02:19:33;4.11;82.12
75457;SHT31;64036;48.266;14.192;2024-01-07T02:21:58;4.12;82.11
75457;SHT31;64036;48.266;14.192;2024-01-07T02:24:24;4.11;82.13
75457;SHT31;64036;48.266;14.192;2024-01-07T02:26:50;4.12;82.11
75457;SHT31;64036;48.266;14.192;2024-01-07T02:29:16;4.11;82.10
75457;SHT31;64036;48.266;14.192;2024-01-07T02:31:41;4.11;82.13
75457;SHT31;64036;48.266;14.192;2024-01-07T02:34:08;4.11;82.18
75457;SHT31;64036;48.266;14.192;2024-01-07T02:36:35;4.12;82.20
75457;SHT31;64036;48.266;14.192;2024-01-07T02:39:01;4.14;82.21
75457;SHT31;64036;48.266;14.192;2024-01-07T02:41:27;4.20;82.28
75457;SHT31;64036;48.266;14.192;2024-01-07T02:43:52;4.22;82.13
75457;SHT31;64036;48.266;14.192;2024-01-07T02:46:19;4.27;82.20
75457;SHT31;64036;48.266;14.192;2024-01-07T02:48:46;4.28;82.07
75457;SHT31;64036;48.266;14.192;2024-01-07T02:51:11;4.28;82.06
75457;SHT31;64036;48.266;14.192;2024-01-07T02:53:37;4.25;82.00
75457;SHT31;64036;48.266;14.192;2024-01-07T02:56:03;4.23;82.01
75457;SHT31;64036;48.266;14.192;2024-01-07T02:58:29;4.22;82.04
75457;SHT31;64036;48.266;14.192;2024-01-07T03:00:55;4.22;82.10
75457;SHT31;64036;48.266;14.192;2024-01-07T03:03:20;4.20;82.10
75457;SHT31;64036;48.266;14.192;2024-01-07T03:05:46;4.20;82.12
75457;SHT31;64036;48.266;14.192;2024-01-07T03:08:11;4.18;82.07
75457;SHT31;64036;48.266;14.192;2024-01-07T03:10:37;4.16;82.07
75457;SHT31;64036;48.266;14.192;2024-01-07T03:13:03;4.15;82.10
75457;SHT31;64036;48.266;14.192;2024-01-07T03:15:29;4.12;82.14
75457;SHT31;64036;48.266;14.192;2024-01-07T03:17:56;4.11;82.19
75457;SHT31;64036;48.266;14.192;2024-01-07T03:20:22;4.10;82.23
75457;SHT31;64036;48.266;14.192;2024-01-07T03:22:48;4.11;82.30
75457;SHT31;64036;48.266;14.192;2024-01-07T03:25:13;4.12;82.30
75457;SHT31;64036;48.266;14.192;2024-01-07T03:27:39;4.14;82.30
75457;SHT31;64036;48.266;14.192;2024-01-07T03:30:05;4.14;82.28
75457;SHT31;64036;48.266;14.192;2024-01-07T03:32:31;4.14;82.30
75457;SHT31;64036;48.266;14.192;2024-01-07T03:34:56;4.11;82.32
75457;SHT31;64036;48.266;14.192;2024-01-07T03:37:22;4.15;82.46
75457;SHT31;64036;48.266;14.192;2024-01-07T03:39:48;4.22;82.49
75457;SHT31;64036;48.266;14.192;2024-01-07T03:42:14;4.25;82.31
75457;SHT31;64036;48.266;14.192;2024-01-07T03:44:40;4.26;82.26
75457;SHT31;64036;48.266;14.192;2024-01-07T03:47:06;4.26;82.20
75457;SHT31;64036;48.266;14.192;2024-01-07T03:49:32;4.27;82.22
75457;SHT31;64036;48.266;14.192;2024-01-07T03:51:57;4.28;82.20
75457;SHT31;64036;48.266;14.192;2024-01-07T03:54:23;4.29;82.19
75457;SHT31;64036;48.266;14.192;2024-01-07T03:56:49;4.31;82.20
75457;SHT31;64036;48.266;14.192;2024-01-07T03:59:14;4.32;82.14
75457;SHT31;64036;48.266;14.192;2024-01-07T04:01:40;4.32;82.10
75457;SHT31;64036;48.266;14.192;2024-01-07T04:04:06;4.31;82.07
75457;SHT31;64036;48.266;14.192;2024-01-07T04:06:32;4.32;82.10
75457;SHT31;64036;48.266;14.192;2024-01-07T04:08:57;4.32;82.10
75457;SHT31;64036;48.266;14.192;2024-01-07T04:11:23;4.34;82.14
75457;SHT31;64036;48.266;14.192;2024-01-07T04:13:49;4.34;82.14
75457;SHT31;64036;48.266;14.192;2024-01-07T04:16:15;4.37;82.20
75457;SHT31;64036;48.266;14.192;2024-01-07T04:18:45;4.40;82.20
75457;SHT31;64036;48.266;14.192;2024-01-07T04:21:12;4.44;82.14
75457;SHT31;64036;48.266;14.192;2024-01-07T04:23:40;4.47;82.10
75457;SHT31;64036;48.266;14.192;2024-01-07T04:26:07;4.49;82.02
75457;SHT31;64036;48.266;14.192;2024-01-07T04:28:32;4.48;81.98
75457;SHT31;64036;48.266;14.192;2024-01-07T04:30:58;4.49;81.91
75457;SHT31;64036;48.266;14.192;2024-01-07T04:33:24;4.52;82.00
75457;SHT31;64036;48.266;14.192;2024-01-07T04:35:49;4.54;81.87
75457;SHT31;64036;48.266;14.192;2024-01-07T04:38:15;4.54;81.75
75457;SHT31;64036;48.266;14.192;2024-01-07T04:40:41;4.51;81.61
75457;SHT31;64036;48.266;14.192;2024-01-07T04:43:06;4.49;81.71
75457;SHT31;64036;48.266;14.192;2024-01-07T04:45:32;4.49;81.66
75457;SHT31;64036;48.266;14.192;2024-01-07T04:47:57;4.51;81.55
75457;SHT31;64036;48.266;14.192;2024-01-07T04:50:23;4.54;81.43
75457;SHT31;64036;48.266;14.192;2024-01-07T04:52:49;4.54;81.28
75457;SHT31;64036;48.266;14.192;2024-01-07T04:55:14;4.53;81.09
75457;SHT31;64036;48.266;14.192;2024-01-07T04:57:40;4.49;80.81
75457;SHT31;64036;48.266;14.192;2024-01-07T05:00:06;4.49;80.76
75457;SHT31;64036;48.266;14.192;2024-01-07T05:02:32;4.48;80.61
75457;SHT31;64036;48.266;14.192;2024-01-07T05:04:58;4.50;80.43
75457;SHT31;64036;48.266;14.192;2024-01-07T05:07:23;4.50;80.34
75457;SHT31;64036;48.266;14.192;2024-01-07T05:09:49;4.51;80.21
75457;SHT31;64036;48.266;14.192;2024-01-07T05:12:15;4.49;80.03
75457;SHT31;64036;48.266;14.192;2024-01-07T05:14:41;4.47;79.93
75457;SHT31;64036;48.266;14.192;2024-01-07T05:17:08;4.47;79.84
75457;SHT31;64036;48.266;14.192;2024-01-07T05:19:33;4.47;79.76
75457;SHT31;64036;48.266;14.192;2024-01-07T05:21:59;4.47;79.68
75457;SHT31;64036;48.266;14.192;2024-01-07T05:24:26;4.49;79.59
75457;SHT31;64036;48.266;14.192;2024-01-07T05:26:51;4.50;79.38
75457;SHT31;64036;48.266;14.192;2024-01-07T05:29:18;4.49;79.24
75457;SHT31;64036;48.266;14.192;2024-01-07T05:31:44;4.51;79.18
75457;SHT31;64036;48.266;14.192;2024-01-07T05:34:10;4.50;79.11
75457;SHT31;64036;48.266;14.192;2024-01-07T05:36:35;4.51;79.12
75457;SHT31;64036;48.266;14.192;2024-01-07T05:39:01;4.52;79.04
75457;SHT31;64036;48.266;14.192;2024-01-07T05:41:27;4.49;78.84
75457;SHT31;64036;48.266;14.192;2024-01-07T05:43:53;4.44;78.67
75457;SHT31;64036;48.266;14.192;2024-01-07T05:46:19;4.40;78.70
75457;SHT31;64036;48.266;14.192;2024-01-07T05:48:45;4.39;78.63
75457;SHT31;64036;48.266;14.192;2024-01-07T05:51:15;4.38;78.54
75457;SHT31;64036;48.266;14.192;2024-01-07T05:53:41;4.41;78.58
75457;SHT31;64036;48.266;14.192;2024-01-07T05:56:08;4.39;78.52
75457;SHT31;64036;48.266;14.192;2024-01-07T05:58:34;4.39;78.47
75457;SHT31;64036;48.266;14.192;2024-01-07T06:01:00;4.37;78.70
75457;SHT31;64036;48.266;14.192;2024-01-07T06:03:25;4.35;79.01
75457;SHT31;64036;48.266;14.192;2024-01-07T06:05:51;4.37;79.23
75457;SHT31;64036;48.266;14.192;2024-01-07T06:08:17;4.40;79.29
75457;SHT31;64036;48.266;14.192;2024-01-07T06:10:43;4.41;79.30
75457;SHT31;64036;48.266;14.192;2024-01-07T06:13:11;4.42;79.29
75457;SHT31;64036;48.266;14.192;2024-01-07T06:15:37;4.41;79.12
75457;SHT31;64036;48.266;14.192;2024-01-07T06:18:03;4.39;79.18
75457;SHT31;64036;48.266;14.192;2024-01-07T06:20:29;4.38;79.12
75457;SHT31;64036;48.266;14.192;2024-01-07T06:22:55;4.36;79.04
75457;SHT31;64036;48.266;14.192;2024-01-07T06:25:21;4.34;78.90
75457;SHT31;64036;48.266;14.192;2024-01-07T06:27:46;4.27;78.71
75457;SHT31;64036;48.266;14.192;2024-01-07T06:30:12;4.20;78.71
75457;SHT31;64036;48.266;14.192;2024-01-07T06:32:40;4.15;78.83
75457;SHT31;64036;48.266;14.192;2024-01-07T06:35:08;4.11;78.89
75457;SHT31;64036;48.266;14.192;2024-01-07T06:37:34;4.08;78.84
75457;SHT31;64036;48.266;14.192;2024-01-07T06:40:03;4.04;78.72
75457;SHT31;64036;48.266;14.192;2024-01-07T06:42:29;4.02;78.73
75457;SHT31;64036;48.266;14.192;2024-01-07T06:44:55;3.99;78.70
75457;SHT31;64036;48.266;14.192;2024-01-07T06:47:20;3.95;78.72
75457;SHT31;64036;48.266;14.192;2024-01-07T06:49:46;3.94;78.88
75457;SHT31;64036;48.266;14.192;2024-01-07T06:52:12;3.94;78.93
75457;SHT31;64036;48.266;14.192;2024-01-07T06:54:38;3.95;78.95
75457;SHT31;64036;48.266;14.192;2024-01-07T06:57:06;3.96;78.86
75457;SHT31;64036;48.266;14.192;2024-01-07T06:59:32;3.95;78.77
75457;SHT31;64036;48.266;14.192;2024-01-07T07:02:00;3.90;78.62
75457;SHT31;64036;48.266;14.192;2024-01-07T07:04:26;3.90;78.79
75457;SHT31;64036;48.266;14.192;2024-01-07T07:06:52;3.90;78.77
75457;SHT31;64036;48.266;14.192;2024-01-07T07:09:17;3.89;78.88
75457;SHT31;64036;48.266;14.192;2024-01-07T07:11:46;3.90;79.01
75457;SHT31;64036;48.266;14.192;2024-01-07T07:14:12;3.91;78.98
75457;SHT31;64036;48.266;14.192;2024-01-07T07:16:37;3.92;78.91
75457;SHT31;64036;48.266;14.192;2024-01-07T07:19:03;3.90;78.90
75457;SHT31;64036;48.266;14.192;2024-01-07T07:21:29;3.89;78.89
75457;SHT31;64036;48.266;14.192;2024-01-07T07:23:54;3.89;78.93
75457;SHT31;64036;48.266;14.192;2024-01-07T07:26:20;3.89;78.91
75457;SHT31;64036;48.266;14.192;2024-01-07T07:28:46;3.90;79.01
75457;SHT31;64036;48.266;14.192;2024-01-07T07:31:12;3.88;79.01
75457;SHT31;64036;48.266;14.192;2024-01-07T07:33:40;3.84;78.97
75457;SHT31;64036;48.266;14.192;2024-01-07T07:36:06;3.79;79.00
75457;SHT31;64036;48.266;14.192;2024-01-07T07:38:33;3.76;79.05
75457;SHT31;64036;48.266;14.192;2024-01-07T07:41:02;3.72;79.16
75457;SHT31;64036;48.266;14.192;2024-01-07T07:43:27;3.73;79.41
75457;SHT31;64036;48.266;14.192;2024-01-07T07:45:54;3.72;79.56
75457;SHT31;64036;48.266;14.192;2024-01-07T07:48:20;3.75;79.69
75457;SHT31;64036;48.266;14.192;2024-01-07T07:50:46;3.75;79.72
75457;SHT31;64036;48.266;14.192;2024-01-07T07:53:11;3.78;79.86
75457;SHT31;64036;48.266;14.192;2024-01-07T07:55:37;3.81;79.99
75457;SHT31;64036;48.266;14.192;2024-01-07T07:58:03;3.83;80.05
75457;SHT31;64036;48.266;14.192;2024-01-07T08:00:29;3.88;80.08
75457;SHT31;64036;48.266;14.192;2024-01-07T08:02:55;3.89;80.00
75457;SHT31;64036;48.266;14.192;2024-01-07T08:05:21;3.90;80.03
75457;SHT31;64036;48.266;14.192;2024-01-07T08:07:53;3.90;80.07
75457;SHT31;64036;48.266;14.192;2024-01-07T08:10:21;3.91;80.13
75457;SHT31;64036;48.266;14.192;2024-01-07T08:12:50;3.94;80.16
75457;SHT31;64036;48.266;14.192;2024-01-07T08:15:16;3.97;80.11
75457;SHT31;64036;48.266;14.192;2024-01-07T08:17:42;3.98;79.99
75457;SHT31;64036;48.266;14.192;2024-01-07T08:20:10;3.94;79.99
75457;SHT31;64036;48.266;14.192;2024-01-07T08:22:37;3.93;80.00
75457;SHT31;64036;48.266;14.192;2024-01-07T08:25:02;3.93;80.02
75457;SHT31;64036;48.266;14.192;2024-01-07T08:27:29;3.92;80.01
75457;SHT31;64036;48.266;14.192;2024-01-07T08:30:05;3.91;79.99
75457;SHT31;64036;48.266;14.192;2024-01-07T08:32:31;3.90;80.06
75457;SHT31;64036;48.266;14.192;2024-01-07T08:34:57;3.91;80.10
75457;SHT31;64036;48.266;14.192;2024-01-07T08:37:24;3.90;80.03
75457;SHT31;64036;48.266;14.192;2024-01-07T08:39:49;3.84;79.91
75457;SHT31;64036;48.266;14.192;2024-01-07T08:42:36;3.76;79.88
75457;SHT31;64036;48.266;14.192;2024-01-07T08:45:02;3.61;79.81
75457;SHT31;64036;48.266;14.192;2024-01-07T08:47:38;3.49;80.00
75457;SHT31;64036;48.266;14.192;2024-01-07T08:50:05;3.37;80.08
75457;SHT31;64036;48.266;14.192;2024-01-07T08:52:32;3.26;80.23
75457;SHT31;64036;48.266;14.192;2024-01-07T08:55:00;3.20;80.49
75457;SHT31;64036;48.266;14.192;2024-01-07T08:57:27;3.18;80.60
75457;SHT31;64036;48.266;14.192;2024-01-07T08:59:53;3.19;80.75
75457;SHT31;64036;48.266;14.192;2024-01-07T09:02:22;3.23;80.85
75457;SHT31;64036;48.266;14.192;2024-01-07T09:04:50;3.28;80.83
75457;SHT31;64036;48.266;14.192;2024-01-07T09:07:17;3.36;81.00
75457;SHT31;64036;48.266;14.192;2024-01-07T09:09:44;3.46;80.98
75457;SHT31;64036;48.266;14.192;2024-01-07T09:12:10;3.56;80.99
75457;SHT31;64036;48.266;14.192;2024-01-07T09:14:39;3.65;80.94
75457;SHT31;64036;48.266;14.192;2024-01-07T09:17:05;3.72;80.81
75457;SHT31;64036;48.266;14.192;2024-01-07T09:19:31;3.76;80.70
75457;SHT31;64036;48.266;14.192;2024-01-07T09:22:04;3.82;80.74
75457;SHT31;64036;48.266;14.192;2024-01-07T09:24:32;3.91;80.78
75457;SHT31;64036;48.266;14.192;2024-01-07T09:26:58;3.97;80.63
75457;SHT31;64036;48.266;14.192;2024-01-07T09:29:24;4.00;80.44
75457;SHT31;64036;48.266;14.192;2024-01-07T09:31:50;4.00;80.32
75457;SHT31;64036;48.266;14.192;2024-01-07T09:34:18;4.02;80.41
75457;SHT31;64036;48.266;14.192;2024-01-07T09:36:46;4.04;80.38
75457;SHT31;64036;48.266;14.192;2024-01-07T09:39:12;4.09;80.46
75457;SHT31;64036;48.266;14.192;2024-01-07T09:41:41;4.11;80.37
75457;SHT31;64036;48.266;14.192;2024-01-07T09:44:12;4.11;80.12
75457;SHT31;64036;48.266;14.192;2024-01-07T09:46:44;4.10;80.06
75457;SHT31;64036;48.266;14.192;2024-01-07T09:49:23;4.14;80.25
75457;SHT31;64036;48.266;14.192;2024-01-07T09:55:21;4.30;80.03
75457;SHT31;64036;48.266;14.192;2024-01-07T09:58:13;4.31;79.99
75457;SHT31;64036;48.266;14.192;2024-01-07T10:00:42;4.33;79.88
75457;SHT31;64036;48.266;14.192;2024-01-07T10:03:08;4.30;79.48
75457;SHT31;64036;48.266;14.192;2024-01-07T10:05:33;4.28;79.41
75457;SHT31;64036;48.266;14.192;2024-01-07T10:07:59;4.27;79.31
75457;SHT31;64036;48.266;14.192;2024-01-07T10:10:25;4.27;79.25
75457;SHT31;64036;48.266;14.192;2024-01-07T10:12:51;4.24;79.04
75457;SHT31;64036;48.266;14.192;2024-01-07T10:15:18;4.22;78.79
75457;SHT31;64036;48.266;14.192;2024-01-07T10:17:44;4.14;78.35
75457;SHT31;64036;48.266;14.192;2024-01-07T10:20:10;4.13;78.49
75457;SHT31;64036;48.266;14.192;2024-01-07T10:22:38;4.18;78.47
75457;SHT31;64036;48.266;14.192;2024-01-07T10:25:16;4.23;78.61
75457;SHT31;64036;48.266;14.192;2024-01-07T10:27:58;4.30;78.40
75457;SHT31;64036;48.266;14.192;2024-01-07T10:30:26;4.27;77.71
75457;SHT31;64036;48.266;14.192;2024-01-07T10:32:57;4.27;77.92
75457;SHT31;64036;48.266;14.192;2024-01-07T10:35:42;4.27;77.67
75457;SHT31;64036;48.266;14.192;2024-01-07T10:38:32;4.32;77.55
75457;SHT31;64036;48.266;14.192;2024-01-07T10:40:58;4.36;77.25
75457;SHT31;64036;48.266;14.192;2024-01-07T10:43:26;4.33;76.76
75457;SHT31;64036;48.266;14.192;2024-01-07T10:46:02;4.31;76.61
75457;SHT31;64036;48.266;14.192;2024-01-07T10:52:10;4.33;76.52
75457;SHT31;64036;48.266;14.192;2024-01-07T10:54:48;4.27;76.18
75457;SHT31;64036;48.266;14.192;2024-01-07T10:57:43;4.20;76.24
75457;SHT31;64036;48.266;14.192;2024-01-07T11:00:22;4.17;76.33
75457;SHT31;64036;48.266;14.192;2024-01-07T11:10:16;4.25;76.72
75457;SHT31;64036;48.266;14.192;2024-01-07T11:17:47;4.20;76.09
75457;SHT31;64036;48.266;14.192;2024-01-07T11:20:49;4.14;75.84
75457;SHT31;64036;48.266;14.192;2024-01-07T11:23:34;4.12;75.67
75457;SHT31;64036;48.266;14.192;2024-01-07T11:26:28;4.06;75.10
75457;SHT31;64036;48.266;14.192;2024-01-07T11:28:56;3.98;74.38
75457;SHT31;64036;48.266;14.192;2024-01-07T11:34:45;3.88;74.54
75457;SHT31;64036;48.266;14.192;2024-01-07T11:37:56;3.91;74.54
75457;SHT31;64036;48.266;14.192;2024-01-07T11:40:53;3.97;74.26
75457;SHT31;64036;48.266;14.192;2024-01-07T11:44:02;4.02;74.56
75457;SHT31;64036;48.266;14.192;2024-01-07T11:47:00;4.03;74.30
75457;SHT31;64036;48.266;14.192;2024-01-07T11:50:05;3.94;73.97
75457;SHT31;64036;48.266;14.192;2024-01-07T11:53:06;3.91;74.43
75457;SHT31;64036;48.266;14.192;2024-01-07T12:02:04;4.00;74.40
75457;SHT31;64036;48.266;14.192;2024-01-07T12:04:42;3.94;74.20
75457;SHT31;64036;48.266;14.192;2024-01-07T12:07:08;3.97;74.53
75457;SHT31;64036;48.266;14.192;2024-01-07T12:09:42;3.99;74.47
75457;SHT31;64036;48.266;14.192;2024-01-07T12:12:08;3.97;74.21
75457;SHT31;64036;48.266;14.192;2024-01-07T12:14:34;3.96;74.21
75457;SHT31;64036;48.266;14.192;2024-01-07T12:17:03;3.94;73.76
75457;SHT31;64036;48.266;14.192;2024-01-07T12:19:29;3.94;73.41
75457;SHT31;64036;48.266;14.192;2024-01-07T12:22:03;3.93;73.23
75457;SHT31;64036;48.266;14.192;2024-01-07T12:24:31;3.95;73.44
75457;SHT31;64036;48.266;14.192;2024-01-07T12:27:11;3.92;73.96
75457;SHT31;64036;48.266;14.192;2024-01-07T12:30:13;3.91;74.31
75457;SHT31;64036;48.266;14.192;2024-01-07T12:33:15;3.90;74.35
75457;SHT31;64036;48.266;14.192;2024-01-07T12:36:14;3.86;74.34
75457;SHT31;64036;48.266;14.192;2024-01-07T12:39:22;3.79;74.34
75457;SHT31;64036;48.266;14.192;2024-01-07T12:41:50;3.73;74.40
75457;SHT31;64036;48.266;14.192;2024-01-07T12:44:22;3.68;74.43
75457;SHT31;64036;48.266;14.192;2024-01-07T12:46:53;3.65;74.61
75457;SHT31;64036;48.266;14.192;2024-01-07T12:49:19;3.63;74.65
75457;SHT31;64036;48.266;14.192;2024-01-07T12:51:45;3.62;74.77
75457;SHT31;64036;48.266;14.192;2024-01-07T12:54:11;3.61;74.74
75457;SHT31;64036;48.266;14.192;2024-01-07T12:56:36;3.63;74.51
75457;SHT31;64036;48.266;14.192;2024-01-07T12:59:02;3.59;74.20
75457;SHT31;64036;48.266;14.192;2024-01-07T13:01:28;3.50;74.39
75457;SHT31;64036;48.266;14.192;2024-01-07T13:03:56;3.44;73.45
75457;SHT31;64036;48.266;14.192;2024-01-07T13:06:22;3.40;73.48
75457;SHT31;64036;48.266;14.192;2024-01-07T13:08:50;3.41;73.69
75457;SHT31;64036;48.266;14.192;2024-01-07T13:11:30;3.41;73.98
75457;SHT31;64036;48.266;14.192;2024-01-07T13:13:56;3.43;74.04
75457;SHT31;64036;48.266;14.192;2024-01-07T13:16:27;3.44;73.73
75457;SHT31;64036;48.266;14.192;2024-01-07T13:18:53;3.39;73.52
75457;SHT31;64036;48.266;14.192;2024-01-07T13:21:20;3.36;73.80
75457;SHT31;64036;48.266;14.192;2024-01-07T13:23:46;3.36;74.07
75457;SHT31;64036;48.266;14.192;2024-01-07T13:26:13;3.37;74.34
75457;SHT31;64036;48.266;14.192;2024-01-07T13:28:40;3.41;74.42
75457;SHT31;64036;48.266;14.192;2024-01-07T13:31:06;3.40;74.06
75457;SHT31;64036;48.266;14.192;2024-01-07T13:33:34;3.39;73.88
75457;SHT31;64036;48.266;14.192;2024-01-07T13:36:11;3.36;73.74
75457;SHT31;64036;48.266;14.192;2024-01-07T13:38:38;3.36;73.80
75457;SHT31;64036;48.266;14.192;2024-01-07T13:41:11;3.35;73.48
75457;SHT31;64036;48.266;14.192;2024-01-07T13:43:39;3.33;73.56
75457;SHT31;64036;48.266;14.192;2024-01-07T13:46:05;3.32;73.75
75457;SHT31;64036;48.266;14.192;2024-01-07T13:48:34;3.30;73.77
75457;SHT31;64036;48.266;14.192;2024-01-07T13:54:03;3.23;73.89
75457;SHT31;64036;48.266;14.192;2024-01-07T14:00:17;3.18;73.70
75457;SHT31;64036;48.266;14.192;2024-01-07T14:03:11;3.13;73.80
75457;SHT31;64036;48.266;14.192;2024-01-07T14:06:31;3.06;73.52
75457;SHT31;64036;48.266;14.192;2024-01-07T14:09:46;2.97;73.63
75457;SHT31;64036;48.266;14.192;2024-01-07T14:12:41;2.96;73.79
75457;SHT31;64036;48.266;14.192;2024-01-07T14:21:46;2.88;73.81
75457;SHT31;64036;48.266;14.192;2024-01-07T14:26:57;2.84;73.52
75457;SHT31;64036;48.266;14.192;2024-01-07T14:29:25;2.77;73.11
75457;SHT31;64036;48.266;14.192;2024-01-07T14:32:14;2.72;73.55
75457;SHT31;64036;48.266;14.192;2024-01-07T14:34:47;2.68;73.74
75457;SHT31;64036;48.266;14.192;2024-01-07T14:37:18;2.59;73.34
75457;SHT31;64036;48.266;14.192;2024-01-07T14:39:45;2.50;73.57
75457;SHT31;64036;48.266;14.192;2024-01-07T14:42:11;2.47;73.83
75457;SHT31;64036;48.266;14.192;2024-01-07T14:44:39;2.46;73.89
75457;SHT31;64036;48.266;14.192;2024-01-07T14:47:06;2.42;73.66
75457;SHT31;64036;48.266;14.192;2024-01-07T14:49:34;2.41;73.86
75457;SHT31;64036;48.266;14.192;2024-01-07T14:52:02;2.41;73.60
75457;SHT31;64036;48.266;14.192;2024-01-07T14:54:33;2.37;74.28
75457;SHT31;64036;48.266;14.192;2024-01-07T14:57:40;2.18;75.38
75457;SHT31;64036;48.266;14.192;2024-01-07T15:00:59;1.97;76.02
75457;SHT31;64036;48.266;14.192;2024-01-07T15:07:32;1.82;76.50
75457;SHT31;64036;48.266;14.192;2024-01-07T15:10:44;1.83;76.30
75457;SHT31;64036;48.266;14.192;2024-01-07T15:13:55;1.86;76.64
75457;SHT31;64036;48.266;14.192;2024-01-07T15:17:12;1.86;76.96
75457;SHT31;64036;48.266;14.192;2024-01-07T15:19:50;1.86;77.25
75457;SHT31;64036;48.266;14.192;2024-01-07T15:22:16;1.88;77.46
75457;SHT31;64036;48.266;14.192;2024-01-07T15:24:47;1.90;77.49
75457;SHT31;64036;48.266;14.192;2024-01-07T15:27:13;1.94;77.34
75457;SHT31;64036;48.266;14.192;2024-01-07T15:30:22;1.99;77.30
75457;SHT31;64036;48.266;14.192;2024-01-07T15:32:48;1.99;77.32
75457;SHT31;64036;48.266;14.192;2024-01-07T15:35:21;2.01;77.14
75457;SHT31;64036;48.266;14.192;2024-01-07T15:37:47;2.04;76.65
75457;SHT31;64036;48.266;14.192;2024-01-07T15:40:22;2.06;76.44
75457;SHT31;64036;48.266;14.192;2024-01-07T15:42:55;2.07;76.29
75457;SHT31;64036;48.266;14.192;2024-01-07T15:45:51;2.07;75.89
75457;SHT31;64036;48.266;14.192;2024-01-07T15:48:48;2.07;75.47
75457;SHT31;64036;48.266;14.192;2024-01-07T15:51:42;2.05;75.37
75457;SHT31;64036;48.266;14.192;2024-01-07T15:54:17;2.01;75.19
75457;SHT31;64036;48.266;14.192;2024-01-07T15:56:43;1.95;74.98
75457;SHT31;64036;48.266;14.192;2024-01-07T15:59:16;1.92;74.92
75457;SHT31;64036;48.266;14.192;2024-01-07T16:01:46;1.85;74.61
75457;SHT31;64036;48.266;14.192;2024-01-07T16:04:34;1.81;74.78
75457;SHT31;64036;48.266;14.192;2024-01-07T16:07:03;1.79;74.79
75457;SHT31;64036;48.266;14.192;2024-01-07T16:09:39;1.77;74.74
75457;SHT31;64036;48.266;14.192;2024-01-07T16:12:16;1.76;74.69
75457;SHT31;64036;48.266;14.192;2024-01-07T16:14:42;1.73;74.51
75457;SHT31;64036;48.266;14.192;2024-01-07T16:17:08;1.72;74.27
75457;SHT31;64036;48.266;14.192;2024-01-07T16:19:41;1.69;74.19
75457;SHT31;64036;48.266;14.192;2024-01-07T16:22:15;1.71;74.51
75457;SHT31;64036;48.266;14.192;2024-01-07T16:24:40;1.73;74.54
75457;SHT31;64036;48.266;14.192;2024-01-07T16:27:07;1.73;74.44
75457;SHT31;64036;48.266;14.192;2024-01-07T16:29:39;1.72;74.38
75457;SHT31;64036;48.266;14.192;2024-01-07T16:32:32;1.72;74.15
75457;SHT31;64036;48.266;14.192;2024-01-07T16:35:25;1.72;74.14
75457;SHT31;64036;48.266;14.192;2024-01-07T16:38:58;1.68;74.01